Time;durP1;ratioP1;P1;durP2;ratioP2;P2;SDS_P1;SDS_P2;PMS_P1;PMS_P2;Temp;Humidity;BMP_temperature;BMP_pressure;BME280_temperature;BME280_humidity;BME280_pressure;Samples;Min_cycle;Max_cycle;Signal;HPM_P1;HPM_P2
2022/08/29 00:00:13;;;;;;;4.30;3.50;;;23.50;99.90;;;;;;4947462;28;20974;-79
2022/08/29 00:02:46;;;;;;;3.70;3.40;;;24.00;99.90;;;;;;4950597;28;20454;-81
2022/08/29 00:05:16;;;;;;;4.97;3.60;;;23.50;99.90;;;;;;4951779;28;20905;-79
2022/08/29 00:07:44;;;;;;;3.70;3.40;;;23.50;99.90;;;;;;4950194;28;20535;-80
2022/08/29 00:10:13;;;;;;;5.17;3.20;;;23.50;99.90;;;;;;4957441;28;20458;-82
2022/08/29 00:12:42;;;;;;;6.17;4.27;;;23.50;99.90;;;;;;4949187;28;20462;-81
2022/08/29 00:15:12;;;;;;;3.73;3.10;;;23.50;99.90;;;;;;4948073;28;21215;-81
2022/08/29 00:17:41;;;;;;;3.30;3.10;;;23.50;99.90;;;;;;4946998;28;20459;-80
2022/08/29 00:20:12;;;;;;;5.93;2.80;;;23.50;99.90;;;;;;4954234;28;20528;-80
2022/08/29 00:22:42;;;;;;;3.60;3.30;;;23.50;99.90;;;;;;4951146;28;20479;-81
2022/08/29 00:25:13;;;;;;;3.87;3.57;;;23.40;99.90;;;;;;4950644;28;20536;-79
2022/08/29 00:27:42;;;;;;;4.03;3.43;;;23.40;99.90;;;;;;4946478;28;20462;-81
2022/08/29 00:30:17;;;;;;;3.00;2.70;;;23.40;99.90;;;;;;4955417;28;20489;-80
2022/08/29 00:32:46;;;;;;;3.00;2.70;;;23.40;99.90;;;;;;4951322;28;20454;-80
2022/08/29 00:35:16;;;;;;;4.03;3.13;;;23.30;99.90;;;;;;4949785;28;20586;-81
2022/08/29 00:37:45;;;;;;;3.87;3.50;;;23.30;99.90;;;;;;4950118;28;20504;-80
2022/08/29 00:40:18;;;;;;;6.60;3.53;;;23.30;99.90;;;;;;4949823;28;20454;-80
2022/08/29 00:42:46;;;;;;;3.90;3.60;;;23.30;99.90;;;;;;4949866;28;22913;-80
2022/08/29 00:45:16;;;;;;;4.03;3.73;;;23.30;99.90;;;;;;4944554;28;20495;-80
2022/08/29 00:47:49;;;;;;;5.67;3.80;;;23.30;99.90;;;;;;4954726;28;20529;-80
2022/08/29 00:50:23;;;;;;;4.80;4.30;;;23.20;99.90;;;;;;4952406;28;20454;-80
2022/08/29 00:52:56;;;;;;;4.60;3.70;;;23.20;99.90;;;;;;4950729;28;20940;-80
2022/08/29 00:55:26;;;;;;;4.43;4.13;;;23.10;99.90;;;;;;4947771;28;20834;-82
2022/08/29 00:57:58;;;;;;;3.60;3.30;;;23.10;99.90;;;;;;4946867;28;20928;-81
2022/08/29 01:00:27;;;;;;;3.90;3.60;;;23.10;99.90;;;;;;4948417;28;20476;-80
2022/08/29 01:02:56;;;;;;;5.40;4.40;;;23.00;99.90;;;;;;4948031;28;20919;-80
2022/08/29 01:05:26;;;;;;;4.30;3.90;;;23.00;99.90;;;;;;4950521;28;20562;-80
2022/08/29 01:07:55;;;;;;;3.97;3.67;;;23.10;99.90;;;;;;4953692;28;20464;-81
2022/08/29 01:13:11;;;;;;;4.20;3.77;;;23.00;99.90;;;;;;4951344;28;20468;-81
2022/08/29 01:15:42;;;;;;;4.20;3.63;;;22.90;99.90;;;;;;4948213;28;20488;-80
2022/08/29 01:18:14;;;;;;;3.97;3.57;;;22.90;99.90;;;;;;4947662;28;20487;-81
2022/08/29 01:20:53;;;;;;;3.73;3.33;;;22.90;99.90;;;;;;4946832;28;20461;-81
2022/08/29 01:23:31;;;;;;;3.90;3.60;;;22.80;99.90;;;;;;4947113;28;20905;-80
2022/08/29 01:26:02;;;;;;;3.23;3.00;;;22.80;99.90;;;;;;4944878;28;20510;-80
2022/08/29 01:28:33;;;;;;;3.07;2.83;;;22.80;99.90;;;;;;4950606;28;20466;-81
2022/08/29 01:31:06;;;;;;;4.00;3.60;;;22.80;99.90;;;;;;4951119;28;20464;-80
2022/08/29 01:33:42;;;;;;;3.90;3.60;;;22.70;99.90;;;;;;4949075;28;20593;-80
2022/08/29 01:36:15;;;;;;;3.90;3.60;;;22.70;99.90;;;;;;4940244;28;21215;-80
2022/08/29 01:38:43;;;;;;;4.30;3.40;;;22.70;99.90;;;;;;4952839;28;20476;-81
2022/08/29 01:41:13;;;;;;;3.90;3.50;;;22.60;99.90;;;;;;4953420;28;20460;-80
2022/08/29 01:43:49;;;;;;;4.07;3.70;;;22.70;99.90;;;;;;4950566;28;20476;-79
2022/08/29 01:46:23;;;;;;;3.97;3.47;;;22.70;99.90;;;;;;4950909;28;20540;-80
2022/08/29 01:48:51;;;;;;;4.43;3.70;;;22.70;99.90;;;;;;4957101;28;20465;-80
2022/08/29 01:51:20;;;;;;;3.57;3.27;;;22.70;99.90;;;;;;4949089;28;20748;-81
2022/08/29 01:53:49;;;;;;;5.00;4.50;;;22.60;99.90;;;;;;4953812;28;20464;-81
2022/08/29 01:56:21;;;;;;;4.77;4.20;;;22.60;99.90;;;;;;4948542;28;20545;-81
2022/08/29 01:58:55;;;;;;;4.70;4.30;;;22.60;99.90;;;;;;4950382;28;20510;-81
2022/08/29 02:01:26;;;;;;;5.03;4.53;;;22.60;99.90;;;;;;4962439;28;20504;-80
2022/08/29 02:03:54;;;;;;;4.03;3.60;;;22.50;99.90;;;;;;4951413;28;20471;-81
2022/08/29 02:06:22;;;;;;;4.50;4.17;;;22.50;99.90;;;;;;4944443;28;20560;-80
2022/08/29 02:08:51;;;;;;;4.97;4.53;;;22.50;99.90;;;;;;4953999;28;20463;-81
2022/08/29 02:11:20;;;;;;;5.60;5.20;;;22.40;99.90;;;;;;4953043;28;20468;-80
2022/08/29 02:13:51;;;;;;;4.50;4.20;;;22.50;99.90;;;;;;4952459;28;20485;-81
2022/08/29 02:16:20;;;;;;;4.97;4.47;;;22.50;99.90;;;;;;4948989;28;21011;-80
2022/08/29 02:18:48;;;;;;;4.83;4.43;;;22.50;99.90;;;;;;4943066;28;20464;-80
2022/08/29 02:21:20;;;;;;;6.63;4.40;;;22.50;99.90;;;;;;4952022;28;20466;-81
2022/08/29 02:23:49;;;;;;;5.70;5.07;;;22.50;99.90;;;;;;4945362;28;20840;-80
2022/08/29 02:26:23;;;;;;;5.23;4.73;;;22.50;99.90;;;;;;4949606;28;20585;-80
2022/08/29 02:28:51;;;;;;;4.63;4.23;;;22.40;99.90;;;;;;4950382;28;20550;-81
2022/08/29 02:31:21;;;;;;;4.30;3.90;;;22.40;99.90;;;;;;4948786;28;20455;-82
2022/08/29 02:33:50;;;;;;;4.97;4.57;;;22.40;99.90;;;;;;4948202;28;20511;-81
2022/08/29 02:36:19;;;;;;;5.47;4.90;;;22.40;99.90;;;;;;4943924;28;20535;-81
2022/08/29 02:38:49;;;;;;;4.90;4.50;;;22.40;99.90;;;;;;4944743;28;20532;-82
2022/08/29 02:41:17;;;;;;;4.80;4.40;;;22.40;99.90;;;;;;4945874;28;20463;-80
2022/08/29 02:43:47;;;;;;;4.70;4.30;;;22.40;99.90;;;;;;4944317;28;20496;-80
2022/08/29 02:46:17;;;;;;;6.30;4.77;;;22.30;99.90;;;;;;4953460;28;21350;-81
2022/08/29 02:48:46;;;;;;;4.30;4.00;;;22.20;99.90;;;;;;4950383;28;20456;-81
2022/08/29 02:51:30;;;;;;;5.30;3.60;;;22.20;99.90;;;;;;4949006;28;20460;-82
2022/08/29 02:53:59;;;;;;;4.40;4.00;;;22.20;99.90;;;;;;4947083;28;20452;-82
2022/08/29 02:56:28;;;;;;;3.97;3.57;;;22.20;99.90;;;;;;4950029;28;21014;-81
2022/08/29 02:58:58;;;;;;;5.03;3.53;;;22.20;99.90;;;;;;4951607;28;20995;-82
2022/08/29 03:01:27;;;;;;;6.03;3.60;;;22.20;99.90;;;;;;4951754;28;20460;-81
2022/08/29 03:03:55;;;;;;;4.20;3.10;;;22.10;99.90;;;;;;4952138;28;20574;-81
2022/08/29 03:06:23;;;;;;;4.40;4.00;;;22.10;99.90;;;;;;4955385;28;20474;-82
2022/08/29 03:08:52;;;;;;;4.50;4.10;;;22.10;99.90;;;;;;4947138;28;20469;-81
2022/08/29 03:11:25;;;;;;;4.07;3.73;;;22.10;99.90;;;;;;4952462;28;20470;-80
2022/08/29 03:13:54;;;;;;;5.10;4.27;;;22.00;99.90;;;;;;4947368;28;20469;-80
2022/08/29 03:16:26;;;;;;;3.40;3.10;;;22.00;99.90;;;;;;4956357;28;20490;-81
2022/08/29 03:18:55;;;;;;;3.73;2.97;;;22.00;99.90;;;;;;4951110;28;20551;-79
2022/08/29 03:21:25;;;;;;;3.83;3.50;;;22.00;99.90;;;;;;4949812;28;20470;-80
2022/08/29 03:23:55;;;;;;;3.53;3.23;;;22.00;99.90;;;;;;4944746;28;20518;-80
2022/08/29 03:26:25;;;;;;;4.10;3.40;;;21.90;99.90;;;;;;4951592;28;20526;-80
2022/08/29 03:28:53;;;;;;;3.97;3.50;;;21.90;99.90;;;;;;4944999;28;20913;-79
2022/08/29 03:31:22;;;;;;;3.73;3.00;;;21.90;99.90;;;;;;4951779;28;20493;-80
2022/08/29 03:33:51;;;;;;;3.03;2.80;;;21.90;99.90;;;;;;4946581;28;20463;-80
2022/08/29 03:36:19;;;;;;;3.87;3.20;;;21.80;99.90;;;;;;4951473;28;20557;-80
2022/08/29 03:38:48;;;;;;;4.67;3.87;;;21.80;99.90;;;;;;4950863;28;20455;-79
2022/08/29 03:41:22;;;;;;;3.93;3.50;;;21.80;99.90;;;;;;4950904;28;20464;-80
2022/08/29 03:43:50;;;;;;;4.43;4.03;;;21.80;99.90;;;;;;4956455;28;20475;-79
2022/08/29 03:46:18;;;;;;;6.00;3.90;;;21.70;99.90;;;;;;4946101;28;20488;-80
2022/08/29 03:48:47;;;;;;;5.73;4.10;;;21.70;99.90;;;;;;4950430;28;20465;-80
2022/08/29 03:51:19;;;;;;;5.20;4.80;;;21.70;99.90;;;;;;4953135;28;20939;-79
2022/08/29 03:53:48;;;;;;;5.50;4.97;;;21.70;99.90;;;;;;4953365;28;20523;-80
2022/08/29 03:56:16;;;;;;;5.63;4.60;;;21.70;99.90;;;;;;4960566;28;20488;-79
2022/08/29 03:58:46;;;;;;;5.53;3.90;;;21.70;99.90;;;;;;4949461;28;20538;-80
2022/08/29 04:01:23;;;;;;;5.27;4.30;;;21.70;99.90;;;;;;4948471;28;20448;-83
2022/08/29 04:03:52;;;;;;;4.80;4.40;;;21.70;99.90;;;;;;4945654;28;20496;-80
2022/08/29 04:06:22;;;;;;;4.50;4.10;;;21.70;99.90;;;;;;4949846;28;20501;-80
2022/08/29 04:08:52;;;;;;;4.23;3.40;;;21.60;99.90;;;;;;4944309;28;20457;-80
2022/08/29 04:11:22;;;;;;;4.67;4.27;;;21.60;99.90;;;;;;4954622;28;20956;-80
2022/08/29 04:13:51;;;;;;;3.70;3.50;;;21.60;99.90;;;;;;4958898;28;21145;-81
2022/08/29 04:16:22;;;;;;;4.20;3.90;;;21.60;99.90;;;;;;4954794;28;20467;-80
2022/08/29 04:18:50;;;;;;;4.63;4.23;;;21.50;99.90;;;;;;4953647;28;20484;-80
2022/08/29 04:21:18;;;;;;;4.83;4.43;;;21.50;99.90;;;;;;4954515;28;20464;-81
2022/08/29 04:23:48;;;;;;;6.20;4.23;;;21.50;99.90;;;;;;4951700;28;20503;-80
2022/08/29 04:26:19;;;;;;;4.33;3.93;;;21.40;99.90;;;;;;4954829;28;20523;-80
2022/08/29 04:29:03;;;;;;;4.97;4.47;;;21.50;99.90;;;;;;4950950;28;20482;-80
2022/08/29 04:31:32;;;;;;;5.93;4.10;;;21.40;99.90;;;;;;4957091;28;20483;-80
2022/08/29 04:34:00;;;;;;;4.07;3.63;;;21.40;99.90;;;;;;4956424;28;20970;-80
2022/08/29 04:36:28;;;;;;;5.10;4.70;;;21.40;99.90;;;;;;4948886;28;20476;-80
2022/08/29 04:38:58;;;;;;;5.10;4.60;;;21.40;99.90;;;;;;4955393;28;20506;-79
2022/08/29 04:41:26;;;;;;;5.00;4.23;;;21.40;99.90;;;;;;4955949;28;20450;-80
2022/08/29 04:43:54;;;;;;;3.90;3.60;;;21.40;99.90;;;;;;4949433;28;20472;-80
2022/08/29 04:46:23;;;;;;;4.80;4.40;;;21.40;99.90;;;;;;4960680;28;20479;-80
2022/08/29 04:48:52;;;;;;;4.70;4.27;;;21.40;99.90;;;;;;4954785;28;20877;-80
2022/08/29 04:51:21;;;;;;;4.67;4.27;;;21.40;99.90;;;;;;4956976;28;20479;-80
2022/08/29 04:53:51;;;;;;;4.27;3.90;;;21.40;99.90;;;;;;4948990;28;20456;-81
2022/08/29 04:56:21;;;;;;;6.00;4.73;;;21.40;99.90;;;;;;4951598;28;20484;-81
2022/08/29 04:58:50;;;;;;;4.70;4.30;;;21.40;99.90;;;;;;4959050;28;20904;-81
2022/08/29 05:01:21;;;;;;;4.37;4.00;;;21.40;99.90;;;;;;4949931;28;20452;-81
2022/08/29 05:03:50;;;;;;;5.03;4.53;;;21.30;99.90;;;;;;4958027;28;20491;-80
2022/08/29 05:06:20;;;;;;;5.90;5.00;;;21.30;99.90;;;;;;4954257;28;20480;-81
2022/08/29 05:08:51;;;;;;;4.27;3.80;;;21.30;99.90;;;;;;4956909;28;20464;-80
2022/08/29 05:11:29;;;;;;;4.50;4.10;;;21.30;99.90;;;;;;4946803;28;20478;-81
2022/08/29 05:13:58;;;;;;;3.57;3.30;;;21.30;99.90;;;;;;4950317;28;20456;-81
2022/08/29 05:16:28;;;;;;;4.73;4.13;;;21.30;99.90;;;;;;4946842;28;20507;-81
2022/08/29 05:18:59;;;;;;;4.40;4.00;;;21.30;99.90;;;;;;4957153;28;20453;-82
2022/08/29 05:21:31;;;;;;;4.07;3.70;;;21.30;99.90;;;;;;4950973;28;20459;-81
2022/08/29 05:24:04;;;;;;;4.90;4.40;;;21.30;99.90;;;;;;4955958;28;20538;-81
2022/08/29 05:26:36;;;;;;;5.60;4.00;;;21.30;99.90;;;;;;4961160;28;20505;-80
2022/08/29 05:29:06;;;;;;;4.90;4.50;;;21.30;99.90;;;;;;4953605;28;20468;-81
2022/08/29 05:31:36;;;;;;;6.70;4.70;;;21.30;99.90;;;;;;4944103;28;20467;-81
2022/08/29 05:34:05;;;;;;;5.70;4.83;;;21.30;99.90;;;;;;4954493;28;20464;-81
2022/08/29 05:36:53;;;;;;;8.17;5.63;;;21.30;99.90;;;;;;4955423;28;20495;-81
2022/08/29 05:39:21;;;;;;;8.37;5.83;;;21.30;99.90;;;;;;4948552;28;20963;-80
2022/08/29 05:41:54;;;;;;;6.77;4.80;;;21.30;99.90;;;;;;4956640;28;20457;-81
2022/08/29 05:44:22;;;;;;;6.73;5.60;;;21.30;99.90;;;;;;4961322;28;20482;-80
2022/08/29 05:46:51;;;;;;;5.73;4.53;;;21.30;99.90;;;;;;4948683;28;20487;-81
2022/08/29 05:49:19;;;;;;;5.87;5.37;;;21.30;99.90;;;;;;4957713;28;20511;-80
2022/08/29 05:51:48;;;;;;;5.30;4.80;;;21.30;99.90;;;;;;4946778;28;20571;-81
2022/08/29 05:54:16;;;;;;;5.10;4.60;;;21.30;99.90;;;;;;4951305;28;20482;-81
2022/08/29 05:56:44;;;;;;;5.20;4.70;;;21.40;99.90;;;;;;4951472;28;20460;-79
2022/08/29 05:59:15;;;;;;;5.97;5.37;;;21.40;99.90;;;;;;4960203;28;20459;-80
2022/08/29 06:01:45;;;;;;;6.57;4.77;;;21.50;99.90;;;;;;4945489;28;20456;-81
2022/08/29 06:04:13;;;;;;;5.10;4.70;;;21.50;99.90;;;;;;4946770;28;20488;-81
2022/08/29 06:06:42;;;;;;;5.23;4.43;;;21.50;99.90;;;;;;4946230;28;21065;-80
2022/08/29 06:09:11;;;;;;;4.40;4.00;;;21.60;99.90;;;;;;4948488;28;20544;-80
2022/08/29 06:11:40;;;;;;;5.90;5.37;;;21.60;99.90;;;;;;4955592;28;20463;-81
2022/08/29 06:14:08;;;;;;;4.50;4.10;;;21.70;99.90;;;;;;4945894;28;20488;-78
2022/08/29 06:16:38;;;;;;;4.37;4.00;;;21.80;99.90;;;;;;4948036;28;20457;-77
2022/08/29 06:19:06;;;;;;;6.27;5.77;;;21.80;99.90;;;;;;4945342;28;20459;-76
2022/08/29 06:21:34;;;;;;;5.03;4.50;;;21.70;99.90;;;;;;4944160;28;20495;-77
2022/08/29 06:24:03;;;;;;;6.10;5.10;;;21.60;99.90;;;;;;4948320;28;20534;-79
2022/08/29 06:26:31;;;;;;;4.90;4.27;;;21.60;99.90;;;;;;4948339;28;20481;-79
2022/08/29 06:28:59;;;;;;;5.63;5.13;;;21.60;99.90;;;;;;4946883;28;20523;-76
2022/08/29 06:31:28;;;;;;;6.60;4.60;;;21.60;99.90;;;;;;4944464;28;20456;-78
2022/08/29 06:34:00;;;;;;;5.23;4.70;;;21.70;99.90;;;;;;4944883;28;20471;-77
2022/08/29 06:36:30;;;;;;;7.43;6.20;;;21.70;99.90;;;;;;4944223;28;20491;-78
2022/08/29 06:39:00;;;;;;;8.13;5.00;;;21.70;99.90;;;;;;4943908;28;20844;-77
2022/08/29 06:41:29;;;;;;;6.57;5.57;;;21.80;99.90;;;;;;4943685;28;20511;-77
2022/08/29 06:43:57;;;;;;;6.90;6.30;;;21.90;99.90;;;;;;4951273;28;20467;-77
2022/08/29 06:46:29;;;;;;;6.17;5.57;;;21.90;99.90;;;;;;4950445;28;21027;-78
2022/08/29 06:49:01;;;;;;;7.30;5.73;;;21.90;99.90;;;;;;4945005;28;20543;-78
2022/08/29 06:51:31;;;;;;;7.93;5.63;;;22.00;99.90;;;;;;4955945;28;20459;-78
2022/08/29 06:54:00;;;;;;;6.20;5.57;;;22.00;99.90;;;;;;4947192;28;20545;-79
2022/08/29 06:56:30;;;;;;;6.87;5.47;;;22.10;99.90;;;;;;4954608;28;20573;-79
2022/08/29 06:58:58;;;;;;;4.17;3.80;;;22.20;99.90;;;;;;4940907;28;21368;-78
2022/08/29 07:01:26;;;;;;;5.10;4.60;;;22.30;99.90;;;;;;4939458;28;20866;-78
2022/08/29 07:03:56;;;;;;;5.50;4.77;;;22.30;99.90;;;;;;4947162;28;20457;-76
2022/08/29 07:06:27;;;;;;;6.03;4.90;;;22.40;99.90;;;;;;4945976;28;20491;-78
2022/08/29 07:08:56;;;;;;;5.83;5.23;;;22.40;99.90;;;;;;4940868;28;20470;-74
2022/08/29 07:11:25;;;;;;;5.10;4.70;;;22.50;99.90;;;;;;4942017;28;20507;-77
2022/08/29 07:13:56;;;;;;;6.13;5.53;;;22.60;99.90;;;;;;4944116;28;20458;-79
2022/08/29 07:16:25;;;;;;;6.10;5.00;;;22.70;99.90;;;;;;4935327;28;20495;-78
2022/08/29 07:18:54;;;;;;;6.40;5.57;;;22.80;99.90;;;;;;4940509;28;20455;-77
2022/08/29 07:21:24;;;;;;;6.03;5.10;;;22.90;99.90;;;;;;4945599;28;20465;-76
2022/08/29 07:23:55;;;;;;;4.60;4.20;;;23.00;99.90;;;;;;4946055;28;20462;-77
2022/08/29 07:26:25;;;;;;;6.63;4.77;;;23.10;99.90;;;;;;4940954;28;20488;-78
2022/08/29 07:28:55;;;;;;;7.17;5.17;;;23.20;99.90;;;;;;4944334;28;20468;-80
2022/08/29 07:31:25;;;;;;;8.03;6.50;;;23.20;99.90;;;;;;4950071;28;20468;-80
2022/08/29 07:33:58;;;;;;;8.80;5.80;;;23.30;99.90;;;;;;4957055;28;20973;-82
2022/08/29 07:36:30;;;;;;;6.97;6.00;;;23.40;99.90;;;;;;4942068;28;20480;-83
2022/08/29 07:39:00;;;;;;;6.10;5.50;;;23.50;99.90;;;;;;4943387;28;20463;-78
2022/08/29 07:41:28;;;;;;;5.67;5.10;;;23.50;99.90;;;;;;4949156;28;20459;-79
2022/08/29 07:43:57;;;;;;;6.50;5.90;;;23.60;99.90;;;;;;4953684;28;20483;-79
2022/08/29 07:46:25;;;;;;;7.57;5.70;;;23.70;99.90;;;;;;4947063;28;20491;-79
2022/08/29 07:48:54;;;;;;;7.40;5.20;;;23.70;99.90;;;;;;4950170;28;20455;-80
2022/08/29 07:51:24;;;;;;;4.93;4.20;;;23.90;99.90;;;;;;4949457;28;20463;-80
2022/08/29 07:53:52;;;;;;;5.37;4.87;;;23.90;99.90;;;;;;4950485;28;20463;-81
2022/08/29 07:56:25;;;;;;;4.90;4.50;;;24.00;99.90;;;;;;4944880;28;20493;-80
2022/08/29 07:58:54;;;;;;;5.30;4.70;;;24.10;99.90;;;;;;4951608;28;20455;-82
2022/08/29 08:01:23;;;;;;;6.80;5.40;;;24.10;99.90;;;;;;4951078;28;20467;-80
2022/08/29 08:03:53;;;;;;;4.10;3.73;;;24.10;99.90;;;;;;4952871;28;20215;-80
2022/08/29 08:06:23;;;;;;;8.80;5.80;;;24.30;99.90;;;;;;4953282;28;20953;-81
2022/08/29 08:08:55;;;;;;;6.57;5.23;;;24.30;99.90;;;;;;4948532;28;20976;-81
2022/08/29 08:11:26;;;;;;;5.87;4.53;;;24.30;99.90;;;;;;4950426;28;20448;-80
2022/08/29 08:13:56;;;;;;;5.23;4.50;;;24.30;99.90;;;;;;4952578;28;20551;-79
2022/08/29 08:16:26;;;;;;;4.30;4.00;;;24.30;99.90;;;;;;4956021;28;20908;-81
2022/08/29 08:18:55;;;;;;;5.43;3.70;;;24.40;99.90;;;;;;4951097;28;20813;-80
2022/08/29 08:21:24;;;;;;;4.37;3.77;;;24.40;99.90;;;;;;4950105;28;20456;-81
2022/08/29 08:23:53;;;;;;;4.03;3.63;;;24.40;99.90;;;;;;4952258;28;20459;-79
2022/08/29 08:26:24;;;;;;;3.97;3.73;;;24.50;99.90;;;;;;4944702;28;21057;-80
2022/08/29 08:28:53;;;;;;;4.07;3.57;;;24.50;99.90;;;;;;4953874;28;20467;-80
2022/08/29 08:31:22;;;;;;;4.83;4.10;;;24.50;99.90;;;;;;4951581;28;20468;-79
2022/08/29 08:33:50;;;;;;;3.50;3.20;;;24.60;99.90;;;;;;4950810;28;21046;-83
2022/08/29 08:36:21;;;;;;;3.63;3.27;;;24.60;99.90;;;;;;4953961;28;20480;-81
2022/08/29 08:38:51;;;;;;;4.70;3.97;;;24.70;99.90;;;;;;4945433;28;20461;-80
2022/08/29 08:41:35;;;;;;;3.20;3.00;;;24.70;99.90;;;;;;4956706;28;20465;-82
2022/08/29 08:44:07;;;;;;;3.30;3.10;;;24.70;99.90;;;;;;4948184;28;20790;-80
2022/08/29 08:46:38;;;;;;;5.10;3.47;;;24.80;99.90;;;;;;4950693;28;20742;-79
2022/08/29 08:49:10;;;;;;;3.70;3.30;;;24.80;99.90;;;;;;4943163;28;20829;-79
2022/08/29 08:51:43;;;;;;;3.30;3.00;;;24.90;99.90;;;;;;4941170;28;20460;-79
2022/08/29 08:54:18;;;;;;;4.87;3.20;;;24.90;99.90;;;;;;4941337;28;20468;-80
2022/08/29 08:56:53;;;;;;;4.53;3.60;;;25.00;99.90;;;;;;4947482;28;20533;-79
2022/08/29 08:59:38;;;;;;;3.33;3.13;;;25.00;99.90;;;;;;4947230;28;20466;-80
2022/08/29 09:02:13;;;;;;;3.23;2.93;;;25.00;99.90;;;;;;4945103;28;20483;-81
2022/08/29 09:04:58;;;;;;;4.13;3.30;;;25.10;99.90;;;;;;4935698;28;21003;-81
2022/08/29 09:07:42;;;;;;;3.17;2.97;;;25.10;99.90;;;;;;4945893;28;20491;-81
2022/08/29 09:10:25;;;;;;;3.73;3.37;;;25.10;99.90;;;;;;4951234;28;20475;-80
2022/08/29 09:13:04;;;;;;;4.73;3.10;;;25.20;99.90;;;;;;4953590;28;20459;-80
2022/08/29 09:15:40;;;;;;;3.60;3.17;;;24.70;99.90;;;;;;4946401;28;20480;-80
2022/08/29 09:18:12;;;;;;;4.00;3.33;;;25.30;99.90;;;;;;4949396;28;20491;-82
2022/08/29 09:20:42;;;;;;;6.13;3.10;;;25.30;99.90;;;;;;4948218;28;20455;-84
2022/08/29 09:23:19;;;;;;;3.43;3.10;;;25.30;99.90;;;;;;4951420;28;20955;-81
2022/08/29 09:25:48;;;;;;;3.20;3.00;;;25.30;99.90;;;;;;4946903;28;20476;-81
2022/08/29 09:28:17;;;;;;;3.50;2.90;;;25.40;99.90;;;;;;4947019;28;20464;-81
2022/08/29 09:31:23;;;;;;;3.33;3.03;;;25.40;99.90;;;;;;4944981;28;20465;-79
2022/08/29 09:33:54;;;;;;;5.50;3.37;;;25.50;99.90;;;;;;4951643;28;20459;-78
2022/08/29 09:36:42;;;;;;;7.83;3.73;;;25.50;99.90;;;;;;4947772;28;20988;-79
2022/08/29 09:39:21;;;;;;;3.10;2.63;;;25.50;99.90;;;;;;4945344;28;20465;-79
2022/08/29 09:41:52;;;;;;;3.33;3.03;;;25.00;99.90;;;;;;4943971;28;20998;-79
2022/08/29 09:44:25;;;;;;;3.20;2.90;;;25.60;99.90;;;;;;4947427;28;20453;-81
2022/08/29 09:47:10;;;;;;;3.57;3.27;;;25.70;99.90;;;;;;4952277;28;20486;-82
2022/08/29 09:49:41;;;;;;;2.93;2.73;;;25.70;99.90;;;;;;4949203;28;21043;-80
2022/08/29 09:52:14;;;;;;;2.90;2.70;;;25.80;99.90;;;;;;4944389;28;20528;-80
2022/08/29 09:54:43;;;;;;;5.47;3.10;;;25.70;99.90;;;;;;4948599;28;20489;-80
2022/08/29 09:57:22;;;;;;;3.00;2.80;;;25.70;99.90;;;;;;4944376;28;20926;-79
2022/08/29 10:00:11;;;;;;;3.97;3.10;;;25.80;99.90;;;;;;4950740;28;20534;-82
2022/08/29 10:02:46;;;;;;;5.60;2.97;;;25.90;99.90;;;;;;4947583;28;20451;-79
2022/08/29 10:05:30;;;;;;;5.13;3.50;;;25.90;99.90;;;;;;4937804;28;20864;-80
2022/08/29 10:07:59;;;;;;;5.20;3.87;;;26.00;99.90;;;;;;4943810;28;20490;-79
2022/08/29 10:10:29;;;;;;;3.20;2.90;;;26.00;99.90;;;;;;4940265;28;20467;-81
2022/08/29 10:13:05;;;;;;;3.63;3.33;;;26.00;99.90;;;;;;4941839;28;20456;-78
2022/08/29 10:15:43;;;;;;;3.20;2.87;;;26.10;99.90;;;;;;4937472;28;20531;-79
2022/08/29 10:18:27;;;;;;;3.97;3.17;;;26.00;99.90;;;;;;4954659;28;20578;-81
2022/08/29 10:21:06;;;;;;;3.83;2.67;;;26.10;99.90;;;;;;4945976;28;20464;-81
2022/08/29 10:23:45;;;;;;;3.63;3.10;;;26.20;99.90;;;;;;4945174;28;20466;-80
2022/08/29 10:26:26;;;;;;;3.23;2.93;;;26.20;99.90;;;;;;4940560;28;20999;-82
2022/08/29 10:29:03;;;;;;;3.60;3.13;;;26.20;99.90;;;;;;4944535;28;20526;-80
2022/08/29 10:31:38;;;;;;;3.53;2.63;;;26.20;99.90;;;;;;4941078;28;20478;-79
2022/08/29 10:34:21;;;;;;;3.20;2.90;;;26.20;99.90;;;;;;4937615;28;20471;-79
2022/08/29 10:36:56;;;;;;;4.00;3.60;;;26.30;99.90;;;;;;4948203;28;20452;-80
2022/08/29 10:39:33;;;;;;;2.77;2.50;;;26.30;99.90;;;;;;4946145;28;20975;-80
2022/08/29 10:42:08;;;;;;;3.03;2.50;;;26.40;99.90;;;;;;4948795;28;21234;-80
2022/08/29 10:44:48;;;;;;;3.27;2.97;;;26.40;99.90;;;;;;4943782;28;20484;-83
2022/08/29 10:47:26;;;;;;;4.00;3.40;;;26.40;99.90;;;;;;4954103;28;20479;-80
2022/08/29 10:50:20;;;;;;;3.93;3.60;;;26.40;99.90;;;;;;4950741;28;20452;-80
2022/08/29 10:53:15;;;;;;;3.97;3.57;;;26.50;99.90;;;;;;4959931;28;20504;-81
2022/08/29 10:55:52;;;;;;;3.67;3.37;;;26.50;99.90;;;;;;4954113;28;20478;-80
2022/08/29 10:58:35;;;;;;;6.33;3.47;;;26.40;99.90;;;;;;4948579;28;20916;-80
2022/08/29 11:01:11;;;;;;;3.50;3.20;;;26.40;99.90;;;;;;4947105;28;20499;-81
2022/08/29 11:03:47;;;;;;;4.93;3.13;;;26.50;99.90;;;;;;4942569;28;20444;-81
2022/08/29 11:06:20;;;;;;;3.47;3.20;;;26.60;99.90;;;;;;4944865;28;21025;-82
2022/08/29 11:08:54;;;;;;;4.17;3.10;;;26.60;99.90;;;;;;4952137;28;20839;-80
2022/08/29 11:11:25;;;;;;;2.90;2.60;;;26.70;99.90;;;;;;4939312;28;20456;-80
2022/08/29 11:13:57;;;;;;;3.63;3.43;;;26.70;99.90;;;;;;4946843;28;20510;-82
2022/08/29 11:16:36;;;;;;;3.90;3.00;;;26.80;99.90;;;;;;4955748;28;20476;-80
2022/08/29 11:19:12;;;;;;;3.73;3.07;;;26.80;99.90;;;;;;4951539;28;20948;-80
2022/08/29 11:21:45;;;;;;;4.13;3.80;;;26.80;99.90;;;;;;4944926;28;20451;-80
2022/08/29 11:24:16;;;;;;;4.00;3.10;;;26.90;99.90;;;;;;4945002;28;20477;-80
2022/08/29 11:26:54;;;;;;;3.53;3.20;;;26.80;99.90;;;;;;4942856;28;20464;-80
2022/08/29 11:29:34;;;;;;;3.13;2.93;;;26.80;99.90;;;;;;4935595;28;20468;-79
2022/08/29 11:32:07;;;;;;;3.77;3.43;;;26.80;99.90;;;;;;4944535;28;20463;-80
2022/08/29 11:34:47;;;;;;;2.90;2.70;;;26.80;99.90;;;;;;4948083;28;20479;-80
2022/08/29 11:37:49;;;;;;;5.07;3.40;;;26.80;99.90;;;;;;4956502;28;20525;-82
2022/08/29 11:40:36;;;;;;;2.83;2.63;;;26.80;99.90;;;;;;4958023;28;20542;-79
2022/08/29 11:43:28;;;;;;;3.37;3.07;;;26.90;99.90;;;;;;4936575;29;21040;-79
2022/08/29 11:46:00;;;;;;;3.00;2.70;;;26.90;99.90;;;;;;4951707;28;20472;-80
2022/08/29 11:48:36;;;;;;;3.30;2.70;;;26.90;99.90;;;;;;4952275;28;20487;-80
2022/08/29 11:51:29;;;;;;;3.83;2.63;;;26.90;99.90;;;;;;4948738;28;21002;-80
2022/08/29 11:54:17;;;;;;;3.00;2.73;;;26.90;99.90;;;;;;4952500;28;20460;-80
2022/08/29 11:56:46;;;;;;;3.80;3.50;;;27.00;99.90;;;;;;4948706;28;20465;-80
2022/08/29 11:59:56;;;;;;;3.37;3.17;;;27.10;99.90;;;;;;4947691;28;20460;-81
2022/08/29 12:02:40;;;;;;;3.93;2.90;;;27.00;99.90;;;;;;4943340;28;20820;-80
2022/08/29 12:05:52;;;;;;;4.63;3.40;;;27.10;99.90;;;;;;4946319;28;20475;-81
2022/08/29 12:08:31;;;;;;;5.33;2.90;;;27.10;99.90;;;;;;4952570;28;20495;-81
2022/08/29 12:11:05;;;;;;;3.40;3.10;;;27.10;99.90;;;;;;4945615;28;20544;-81
2022/08/29 12:13:58;;;;;;;3.00;2.70;;;27.00;99.90;;;;;;4945993;28;20448;-81
2022/08/29 12:16:48;;;;;;;3.60;3.30;;;27.10;99.90;;;;;;4955651;28;20493;-81
2022/08/29 12:19:50;;;;;;;3.23;3.03;;;27.10;99.90;;;;;;4945383;28;20530;-80
2022/08/29 12:23:02;;;;;;;3.13;2.83;;;27.10;99.90;;;;;;4938929;28;20462;-81
2022/08/29 12:25:47;;;;;;;4.20;3.60;;;27.00;99.90;;;;;;4942187;28;20504;-81
2022/08/29 12:28:47;;;;;;;4.10;3.00;;;27.00;99.90;;;;;;4955255;28;20512;-81
2022/08/29 12:31:42;;;;;;;3.40;3.10;;;27.00;99.90;;;;;;4959670;28;21044;-81
2022/08/29 12:34:41;;;;;;;3.30;3.03;;;27.00;99.90;;;;;;4942758;28;20996;-80
2022/08/29 12:37:29;;;;;;;3.00;2.80;;;27.00;99.90;;;;;;4952474;28;21096;-80
2022/08/29 12:40:13;;;;;;;3.40;2.33;;;27.00;99.90;;;;;;4950584;28;20460;-82
2022/08/29 12:42:48;;;;;;;3.03;2.80;;;27.00;99.90;;;;;;4954821;28;20444;-80
2022/08/29 12:45:22;;;;;;;3.67;3.37;;;27.00;99.90;;;;;;4960310;28;20475;-81
2022/08/29 12:47:54;;;;;;;2.50;2.30;;;27.00;99.90;;;;;;4951384;28;20542;-80
2022/08/29 12:50:26;;;;;;;3.13;2.93;;;27.00;99.90;;;;;;4950319;29;20455;-81
2022/08/29 12:53:00;;;;;;;3.00;2.80;;;27.00;99.90;;;;;;4947432;28;20448;-80
2022/08/29 12:55:34;;;;;;;2.90;2.70;;;27.00;99.90;;;;;;4951489;28;20868;-81
2022/08/29 12:58:03;;;;;;;2.90;2.67;;;27.00;99.90;;;;;;4947017;29;20452;-80
2022/08/29 13:00:34;;;;;;;3.33;3.10;;;27.00;99.90;;;;;;4951187;28;20447;-79
2022/08/29 13:03:05;;;;;;;3.10;2.70;;;27.00;99.90;;;;;;4959023;28;20451;-82
2022/08/29 13:05:43;;;;;;;3.20;2.90;;;27.00;99.90;;;;;;4957755;28;20480;-80
2022/08/29 13:08:13;;;;;;;3.20;2.90;;;27.00;99.90;;;;;;4951707;28;20899;-81
2022/08/29 13:10:53;;;;;;;3.00;2.80;;;27.00;99.90;;;;;;4954765;28;20451;-81
2022/08/29 13:13:24;;;;;;;3.30;3.00;;;27.00;99.90;;;;;;4946321;28;20472;-81
2022/08/29 13:15:54;;;;;;;3.13;2.40;;;27.00;99.90;;;;;;4956054;28;20487;-80
2022/08/29 13:18:23;;;;;;;5.00;3.23;;;27.00;99.90;;;;;;4942777;28;20465;-80
2022/08/29 13:21:05;;;;;;;3.00;2.80;;;27.00;99.90;;;;;;4952373;28;20452;-80